createdAt,value
2022-07-25T00:00:11.305Z,0.70
2022-07-25T00:02:39.287Z,0.90
2022-07-25T00:05:08.560Z,0.77
2022-07-25T00:07:36.816Z,0.80
2022-07-25T00:10:05.584Z,0.70
2022-07-25T00:12:33.623Z,0.77
2022-07-25T00:15:03.043Z,0.60
2022-07-25T00:17:31.240Z,0.90
2022-07-25T00:19:59.278Z,0.82
2022-07-25T00:22:27.311Z,0.60
2022-07-25T00:24:55.377Z,0.80
2022-07-25T00:27:23.343Z,0.70
2022-07-25T00:29:51.446Z,1.00
2022-07-25T00:32:20.800Z,0.40
2022-07-25T00:34:48.802Z,0.80
2022-07-25T00:37:16.877Z,0.60
2022-07-25T00:39:44.985Z,0.73
2022-07-25T00:42:13.026Z,0.60
2022-07-25T00:44:40.998Z,0.70
2022-07-25T00:47:08.995Z,0.70
2022-07-25T00:49:38.405Z,0.77
2022-07-25T00:52:07.363Z,0.70
2022-07-25T00:54:35.397Z,0.70
2022-07-25T00:57:03.490Z,0.70
2022-07-25T00:59:31.481Z,0.90
2022-07-25T01:02:00.018Z,0.70
2022-07-25T01:04:32.021Z,0.50
2022-07-25T01:07:01.458Z,0.90
2022-07-25T01:09:29.886Z,0.75
2022-07-25T01:11:57.857Z,0.70
2022-07-25T01:14:25.923Z,0.70
2022-07-25T01:16:53.998Z,0.80
2022-07-25T01:19:21.956Z,0.90
2022-07-25T01:21:51.437Z,0.70
2022-07-25T01:24:19.490Z,0.70
2022-07-25T01:26:47.450Z,0.60
2022-07-25T01:29:15.404Z,0.60
2022-07-25T01:31:43.382Z,0.60
2022-07-25T01:34:11.415Z,0.75
2022-07-25T01:36:39.491Z,0.57
2022-07-25T01:39:08.910Z,0.90
2022-07-25T01:41:37.379Z,0.68
2022-07-25T01:44:06.273Z,0.57
2022-07-25T01:46:34.597Z,0.70
2022-07-25T01:49:02.753Z,0.63
2022-07-25T01:51:30.844Z,0.70
2022-07-25T01:53:58.821Z,0.90
2022-07-25T01:56:29.121Z,0.80
2022-07-25T01:58:59.963Z,0.73
2022-07-25T02:01:28.396Z,0.90
2022-07-25T02:03:56.469Z,0.63
2022-07-25T02:06:24.551Z,0.80
2022-07-25T02:08:52.519Z,0.80
2022-07-25T02:11:20.525Z,0.75
2022-07-25T02:13:49.866Z,0.85
2022-07-25T02:16:17.897Z,0.68
2022-07-25T02:18:46.033Z,0.70
2022-07-25T02:21:15.839Z,0.60
2022-07-25T02:23:44.659Z,0.90
2022-07-25T02:26:12.838Z,1.17
2022-07-25T02:28:41.553Z,0.80
2022-07-25T02:31:11.399Z,0.63
2022-07-25T02:33:39.721Z,0.80
2022-07-25T02:36:08.601Z,0.82
2022-07-25T02:38:36.914Z,1.00
2022-07-25T02:41:06.078Z,0.70
2022-07-25T02:43:34.095Z,0.80
2022-07-25T02:46:02.143Z,0.70
2022-07-25T02:48:31.677Z,0.85
2022-07-25T02:50:59.721Z,0.75
2022-07-25T02:53:47.230Z,0.80
2022-07-25T02:56:15.901Z,0.88
2022-07-25T02:58:44.401Z,0.88
2022-07-25T03:01:12.429Z,0.90
2022-07-25T03:03:42.193Z,0.70
2022-07-25T03:06:10.309Z,0.52
2022-07-25T03:08:38.380Z,0.70
2022-07-25T03:11:07.170Z,0.90
2022-07-25T03:13:35.290Z,0.90
2022-07-25T03:16:03.376Z,0.95
2022-07-25T03:18:31.336Z,0.70
2022-07-25T03:21:00.767Z,0.60
2022-07-25T03:23:29.946Z,0.88
2022-07-25T03:25:58.538Z,0.75
2022-07-25T03:28:26.746Z,0.80
2022-07-25T03:30:55.855Z,0.90
2022-07-25T03:33:23.938Z,1.00
2022-07-25T03:35:51.910Z,0.80
2022-07-25T03:38:21.285Z,1.00
2022-07-25T03:40:49.328Z,0.85
2022-07-25T03:43:17.483Z,0.77
2022-07-25T03:45:45.674Z,0.70
2022-07-25T03:48:13.775Z,0.98
2022-07-25T03:50:41.854Z,0.80
2022-07-25T03:53:10.373Z,0.90
2022-07-25T03:55:40.682Z,1.02
2022-07-25T03:58:08.744Z,0.70
2022-07-25T04:00:36.968Z,0.75
2022-07-25T04:03:05.163Z,0.95
2022-07-25T04:05:33.145Z,0.90
2022-07-25T04:08:01.186Z,0.80
2022-07-25T04:10:29.176Z,0.95
2022-07-25T04:12:58.594Z,0.90
2022-07-25T04:15:26.738Z,0.80
2022-07-25T04:17:55.211Z,0.88
2022-07-25T04:20:23.409Z,0.90
2022-07-25T04:22:53.151Z,0.70
2022-07-25T04:25:21.136Z,0.90
2022-07-25T04:27:49.152Z,0.90
2022-07-25T04:30:23.806Z,0.82
2022-07-25T04:32:52.245Z,0.70
2022-07-25T04:35:20.214Z,1.05
2022-07-25T04:37:48.237Z,1.00
2022-07-25T04:40:16.648Z,0.88
2022-07-25T04:42:44.626Z,0.90
2022-07-25T04:45:12.988Z,0.90
2022-07-25T04:47:42.323Z,0.80
2022-07-25T04:50:11.249Z,0.90
2022-07-25T04:52:39.241Z,0.93
2022-07-25T04:55:08.098Z,0.98
2022-07-25T04:57:36.125Z,0.95
2022-07-25T05:00:05.103Z,1.05
2022-07-25T05:02:33.197Z,1.15
2022-07-25T05:05:03.182Z,1.08
2022-07-25T05:07:31.414Z,0.85
2022-07-25T05:09:59.377Z,0.90
2022-07-25T05:12:27.414Z,0.90
2022-07-25T05:14:55.346Z,1.10
2022-07-25T05:17:23.367Z,1.00
2022-07-25T05:19:51.365Z,1.00
2022-07-25T05:22:24.006Z,0.93
2022-07-25T05:24:56.352Z,1.15
2022-07-25T05:27:24.579Z,0.90
2022-07-25T05:29:52.582Z,1.10
2022-07-25T05:32:20.679Z,1.00
2022-07-25T05:34:48.648Z,0.85
2022-07-25T05:37:17.350Z,0.90
2022-07-25T05:39:46.803Z,0.90
2022-07-25T05:42:14.773Z,1.00
2022-07-25T05:44:42.910Z,1.15
2022-07-25T05:47:11.852Z,1.10
2022-07-25T05:49:40.093Z,1.30
2022-07-25T05:52:12.877Z,1.20
2022-07-25T05:54:41.448Z,1.35
2022-07-25T05:57:10.831Z,0.85
2022-07-25T05:59:38.867Z,1.20
2022-07-25T06:02:06.991Z,1.05
2022-07-25T06:04:35.287Z,0.80
2022-07-25T06:07:03.434Z,1.00
2022-07-25T06:09:32.036Z,0.93
2022-07-25T06:12:01.312Z,1.13
2022-07-25T06:14:31.429Z,1.02
2022-07-25T06:16:59.367Z,1.00
2022-07-25T06:19:27.422Z,1.23
2022-07-25T06:21:55.450Z,1.20
2022-07-25T06:24:23.414Z,1.20
2022-07-25T06:26:51.520Z,0.93
2022-07-25T06:29:19.511Z,0.80
2022-07-25T06:31:49.228Z,0.90
2022-07-25T06:34:17.298Z,1.20
2022-07-25T06:36:45.297Z,1.00
2022-07-25T06:39:13.257Z,1.13
2022-07-25T06:41:41.226Z,0.90
2022-07-25T06:44:09.503Z,0.95
2022-07-25T06:46:37.745Z,1.10
2022-07-25T06:49:07.419Z,1.13
2022-07-25T06:51:36.087Z,1.00
2022-07-25T06:54:04.425Z,1.10
2022-07-25T06:56:33.116Z,1.00
2022-07-25T06:59:01.463Z,1.02
2022-07-25T07:01:30.322Z,1.27
2022-07-25T07:03:58.413Z,1.00
2022-07-25T07:06:27.868Z,1.25
2022-07-25T07:08:56.161Z,1.38
2022-07-25T07:11:24.431Z,1.40
2022-07-25T07:13:52.399Z,0.88
2022-07-25T07:16:20.656Z,1.05
2022-07-25T07:18:49.545Z,1.10
2022-07-25T07:21:21.337Z,1.08
2022-07-25T07:23:53.701Z,1.05
2022-07-25T07:26:22.128Z,0.82
2022-07-25T07:28:50.254Z,1.20
2022-07-25T07:31:19.205Z,1.10
2022-07-25T07:33:47.536Z,0.88
2022-07-25T07:36:15.663Z,1.10
2022-07-25T07:38:44.594Z,1.20
2022-07-25T07:41:14.131Z,1.05
2022-07-25T07:43:42.145Z,1.10
2022-07-25T07:46:10.228Z,1.15
2022-07-25T07:48:38.922Z,1.30
2022-07-25T07:51:07.419Z,1.25
2022-07-25T07:53:52.772Z,1.17
2022-07-25T07:56:22.341Z,1.10
2022-07-25T07:58:50.566Z,1.00
2022-07-25T08:01:18.606Z,1.20
2022-07-25T08:03:46.663Z,1.30
2022-07-25T08:06:14.746Z,1.00
2022-07-25T08:08:42.698Z,1.38
2022-07-25T08:11:10.730Z,1.38
2022-07-25T08:13:40.207Z,1.30
2022-07-25T08:16:08.698Z,1.33
2022-07-25T08:18:36.812Z,1.23
2022-07-25T08:21:06.463Z,1.23
2022-07-25T08:23:35.523Z,1.45
2022-07-25T08:26:04.116Z,1.30
2022-07-25T08:28:32.478Z,0.93
2022-07-25T08:31:01.897Z,1.25
2022-07-25T08:33:29.962Z,1.48
2022-07-25T08:35:58.825Z,1.23
2022-07-25T08:38:29.404Z,1.30
2022-07-25T08:40:58.165Z,1.50
2022-07-25T08:43:26.186Z,1.25
2022-07-25T08:45:56.022Z,1.13
2022-07-25T08:48:27.735Z,1.20
2022-07-25T08:50:58.190Z,1.15
2022-07-25T08:53:34.837Z,1.20
2022-07-25T08:56:11.187Z,1.33
2022-07-25T08:58:44.213Z,1.30
2022-07-25T09:01:12.774Z,1.30
2022-07-25T09:03:43.149Z,1.25
2022-07-25T09:06:21.735Z,1.30
2022-07-25T09:08:54.780Z,1.17
2022-07-25T09:11:33.818Z,1.50
2022-07-25T09:14:05.827Z,1.50
2022-07-25T09:16:39.988Z,1.20
2022-07-25T09:19:14.670Z,1.50
2022-07-25T09:21:45.697Z,1.15
2022-07-25T09:24:17.027Z,1.33
2022-07-25T09:26:47.220Z,1.85
2022-07-25T09:29:23.982Z,1.67
2022-07-25T09:31:52.979Z,1.33
2022-07-25T09:34:38.947Z,1.33
2022-07-25T09:37:09.329Z,2.10
2022-07-25T09:39:45.889Z,2.33
2022-07-25T09:42:20.473Z,1.33
2022-07-25T09:45:03.093Z,1.80
2022-07-25T09:47:31.704Z,1.65
2022-07-25T09:50:01.545Z,1.50
2022-07-25T09:52:29.684Z,1.40
2022-07-25T09:54:57.641Z,1.75
2022-07-25T09:57:25.981Z,1.52
2022-07-25T09:59:54.052Z,1.58
2022-07-25T10:02:34.456Z,1.90
2022-07-25T10:05:13.722Z,1.52
2022-07-25T10:07:46.718Z,1.90
2022-07-25T10:10:30.368Z,2.03
2022-07-25T10:13:07.839Z,1.85
2022-07-25T10:15:46.992Z,2.20
2022-07-25T10:18:16.606Z,2.03
2022-07-25T10:20:47.293Z,2.03
2022-07-25T10:23:22.525Z,2.28
2022-07-25T10:26:05.730Z,2.40
2022-07-25T10:28:43.642Z,3.10
2022-07-25T10:31:36.522Z,3.53
2022-07-25T10:34:06.790Z,3.20
2022-07-25T10:36:49.274Z,3.33
2022-07-25T10:39:19.411Z,3.67
2022-07-25T10:41:53.042Z,2.95
2022-07-25T10:44:21.231Z,3.20
2022-07-25T10:46:50.400Z,3.13
2022-07-25T10:49:29.106Z,2.80
2022-07-25T10:52:03.730Z,2.85
2022-07-25T10:54:35.586Z,2.60
2022-07-25T10:57:05.878Z,3.35
2022-07-25T10:59:36.257Z,2.50
2022-07-25T11:02:06.626Z,2.30
2022-07-25T11:04:35.081Z,2.60
2022-07-25T11:07:10.881Z,2.22
2022-07-25T11:09:39.719Z,2.92
2022-07-25T11:12:08.537Z,2.50
2022-07-25T11:14:38.044Z,2.35
2022-07-25T11:17:15.401Z,2.63
2022-07-25T11:19:44.819Z,2.40
2022-07-25T11:22:14.374Z,2.45
2022-07-25T11:24:44.546Z,2.42
2022-07-25T11:27:15.367Z,2.38
2022-07-25T11:29:43.401Z,2.03
2022-07-25T11:32:13.208Z,2.40
2022-07-25T11:34:43.989Z,2.70
2022-07-25T11:37:15.137Z,2.63
2022-07-25T11:39:45.501Z,2.53
2022-07-25T11:42:16.461Z,2.55
2022-07-25T11:44:47.992Z,2.70
2022-07-25T11:47:26.132Z,2.75
2022-07-25T11:49:55.807Z,2.70
2022-07-25T11:52:27.880Z,3.03
2022-07-25T11:54:57.418Z,2.20
2022-07-25T11:57:26.814Z,2.90
2022-07-25T11:59:55.506Z,2.67
2022-07-25T12:02:25.704Z,3.17
2022-07-25T12:04:59.087Z,2.80
2022-07-25T12:07:44.643Z,2.80
2022-07-25T12:10:16.760Z,2.72
2022-07-25T12:12:50.548Z,2.83
2022-07-25T12:15:21.498Z,3.33
2022-07-25T12:17:49.993Z,3.28
2022-07-25T12:20:20.434Z,3.28
2022-07-25T12:22:51.433Z,3.08
2022-07-25T12:25:19.837Z,3.30
2022-07-25T12:27:48.341Z,2.88
2022-07-25T12:30:16.849Z,3.10
2022-07-25T12:32:45.259Z,3.10
2022-07-25T12:35:15.360Z,3.13
2022-07-25T12:37:44.412Z,3.40
2022-07-25T12:40:15.419Z,3.38
2022-07-25T12:42:44.019Z,3.40
2022-07-25T12:45:12.919Z,3.00
2022-07-25T12:47:41.190Z,3.10
2022-07-25T12:50:09.990Z,3.20
2022-07-25T12:52:38.902Z,2.85
2022-07-25T12:55:08.352Z,3.30
2022-07-25T12:57:38.830Z,3.22
2022-07-25T13:00:10.379Z,3.10
2022-07-25T13:02:38.930Z,3.28
2022-07-25T13:05:08.306Z,3.65
2022-07-25T13:07:36.415Z,3.50
2022-07-25T13:10:06.500Z,3.03
2022-07-25T13:12:34.690Z,3.40
2022-07-25T13:15:04.163Z,2.72
2022-07-25T13:17:33.235Z,3.10
2022-07-25T13:20:01.335Z,3.25
2022-07-25T13:22:29.322Z,2.90
2022-07-25T13:24:57.400Z,3.30
2022-07-25T13:27:25.384Z,2.88
2022-07-25T13:29:55.128Z,3.33
2022-07-25T13:32:26.487Z,3.30
2022-07-25T13:34:54.608Z,3.03
2022-07-25T13:37:22.624Z,3.33
2022-07-25T13:39:50.637Z,3.50
2022-07-25T13:42:18.748Z,3.25
2022-07-25T13:44:46.737Z,3.20
2022-07-25T13:47:14.745Z,3.33
2022-07-25T13:49:44.138Z,3.35
2022-07-25T13:52:12.178Z,2.90
2022-07-25T13:54:40.326Z,3.10
2022-07-25T13:57:09.421Z,3.40
2022-07-25T13:59:37.512Z,3.38
2022-07-25T14:02:05.815Z,3.22
2022-07-25T14:04:34.129Z,2.97
2022-07-25T14:07:03.543Z,3.20
2022-07-25T14:09:31.509Z,3.25
2022-07-25T14:11:59.578Z,3.35
2022-07-25T14:14:27.542Z,3.08
2022-07-25T14:16:55.700Z,3.05
2022-07-25T14:19:24.219Z,3.05
2022-07-25T14:21:52.352Z,2.70
2022-07-25T14:24:21.742Z,2.80
2022-07-25T14:26:50.281Z,3.83
2022-07-25T14:29:18.400Z,3.10
2022-07-25T14:31:46.704Z,3.25
2022-07-25T14:34:15.640Z,3.85
2022-07-25T14:36:44.631Z,4.18
2022-07-25T14:39:12.642Z,2.80
2022-07-25T14:41:42.390Z,3.03
2022-07-25T14:44:10.434Z,2.60
2022-07-25T14:46:39.553Z,2.85
2022-07-25T14:49:08.824Z,2.92
2022-07-25T14:51:37.018Z,2.90
2022-07-25T14:54:05.209Z,3.30
2022-07-25T14:56:33.295Z,2.97
2022-07-25T14:59:02.934Z,2.90
2022-07-25T15:01:31.427Z,3.30
2022-07-25T15:03:59.519Z,2.80
2022-07-25T15:06:29.290Z,3.17
2022-07-25T15:08:57.569Z,3.38
2022-07-25T15:11:26.021Z,2.90
2022-07-25T15:13:54.152Z,3.00
2022-07-25T15:16:23.574Z,2.95
2022-07-25T15:19:15.137Z,2.95
2022-07-25T15:21:40.016Z,3.47
2022-07-25T15:24:08.175Z,2.80
2022-07-25T15:26:36.158Z,3.13
2022-07-25T15:29:07.339Z,3.10
2022-07-25T15:31:37.272Z,3.00
2022-07-25T15:34:05.322Z,3.03
2022-07-25T15:36:33.288Z,2.90
2022-07-25T15:39:01.349Z,3.17
2022-07-25T15:41:29.357Z,2.78
2022-07-25T15:43:57.379Z,2.90
2022-07-25T15:46:26.479Z,2.60
2022-07-25T15:48:57.858Z,3.30
2022-07-25T15:51:26.005Z,2.85
2022-07-25T15:53:54.145Z,2.63
2022-07-25T15:56:22.193Z,2.53
2022-07-25T15:58:50.714Z,2.55
2022-07-25T16:01:19.004Z,2.78
2022-07-25T16:03:47.255Z,2.70
2022-07-25T16:06:20.690Z,2.85
2022-07-25T16:08:50.107Z,2.97
2022-07-25T16:11:25.131Z,3.35
2022-07-25T16:13:53.795Z,2.72
2022-07-25T16:16:22.944Z,2.83
2022-07-25T16:18:51.044Z,3.03
2022-07-25T16:21:20.377Z,3.00
2022-07-25T16:23:48.439Z,2.90
2022-07-25T16:26:16.396Z,3.30
2022-07-25T16:28:45.413Z,2.60
2022-07-25T16:31:13.526Z,2.55
2022-07-25T16:33:41.535Z,2.85
2022-07-25T16:36:11.699Z,3.10
2022-07-25T16:38:41.125Z,2.95
2022-07-25T16:41:09.065Z,2.70
2022-07-25T16:43:37.406Z,2.90
2022-07-25T16:46:05.697Z,2.58
2022-07-25T16:48:33.763Z,2.40
2022-07-25T16:51:01.736Z,2.50
2022-07-25T16:53:29.761Z,2.45
2022-07-25T16:55:59.214Z,2.90
2022-07-25T16:58:27.250Z,2.50
2022-07-25T17:00:55.238Z,2.55
2022-07-25T17:03:23.240Z,2.42
2022-07-25T17:05:51.810Z,2.53
2022-07-25T17:08:19.830Z,2.50
2022-07-25T17:10:47.892Z,2.72
2022-07-25T17:13:17.211Z,2.50
2022-07-25T17:15:45.574Z,2.50
2022-07-25T17:18:14.228Z,2.53
2022-07-25T17:20:42.277Z,2.47
2022-07-25T17:23:11.082Z,2.42
2022-07-25T17:25:40.320Z,2.08
2022-07-25T17:28:08.805Z,2.25
2022-07-25T17:30:38.290Z,2.53
2022-07-25T17:33:06.236Z,2.63
2022-07-25T17:35:34.258Z,2.15
2022-07-25T17:38:02.285Z,2.80
2022-07-25T17:40:30.365Z,2.20
2022-07-25T17:42:58.773Z,2.47
2022-07-25T17:45:27.274Z,2.33
2022-07-25T17:47:56.635Z,2.42
2022-07-25T17:50:29.151Z,2.42
2022-07-25T17:53:00.020Z,2.60
2022-07-25T17:55:28.944Z,2.45
2022-07-25T17:57:59.569Z,2.20
2022-07-25T18:00:28.508Z,2.40
2022-07-25T18:02:57.948Z,2.55
2022-07-25T18:05:26.181Z,2.40
2022-07-25T18:07:54.201Z,2.70
2022-07-25T18:10:22.350Z,2.83
2022-07-25T18:12:50.972Z,2.70
2022-07-25T18:15:19.109Z,2.75
2022-07-25T18:17:48.473Z,2.67
2022-07-25T18:20:18.287Z,2.95
2022-07-25T18:22:46.369Z,3.45
2022-07-25T18:25:15.350Z,2.95
2022-07-25T18:27:45.152Z,2.85
2022-07-25T18:30:14.109Z,3.05
2022-07-25T18:32:42.769Z,2.90
2022-07-25T18:35:12.055Z,3.17
2022-07-25T18:37:41.554Z,3.67
2022-07-25T18:40:10.793Z,3.40
2022-07-25T18:42:39.486Z,3.30
2022-07-25T18:45:08.817Z,3.10
2022-07-25T18:47:37.925Z,2.92
2022-07-25T18:50:07.019Z,2.35
2022-07-25T18:52:36.285Z,3.55
2022-07-25T18:55:07.074Z,2.90
2022-07-25T18:57:35.895Z,3.28
2022-07-25T19:00:04.063Z,3.17
2022-07-25T19:02:32.176Z,3.22
2022-07-25T19:05:00.232Z,3.47
2022-07-25T19:07:29.861Z,2.83
2022-07-25T19:09:57.929Z,2.90
2022-07-25T19:12:27.447Z,2.70
2022-07-25T19:14:55.614Z,3.30
2022-07-25T19:17:24.571Z,3.40
2022-07-25T19:19:53.551Z,3.00
2022-07-25T19:22:21.565Z,2.72
2022-07-25T19:24:49.622Z,2.72
2022-07-25T19:27:18.035Z,2.63
2022-07-25T19:29:47.808Z,3.10
2022-07-25T19:32:16.267Z,3.05
2022-07-25T19:34:46.465Z,3.20
2022-07-25T19:37:14.415Z,2.60
2022-07-25T19:39:42.393Z,2.55
2022-07-25T19:42:12.293Z,2.83
2022-07-25T19:44:40.442Z,2.80
2022-07-25T19:47:11.981Z,2.78
2022-07-25T19:49:40.736Z,3.20
2022-07-25T19:52:09.566Z,2.90
2022-07-25T19:54:37.614Z,2.80
2022-07-25T19:57:05.842Z,2.67
2022-07-25T19:59:34.038Z,2.20
2022-07-25T20:02:02.126Z,2.70
2022-07-25T20:04:31.758Z,2.63
2022-07-25T20:07:02.245Z,2.70
2022-07-25T20:09:30.505Z,2.40
2022-07-25T20:11:58.772Z,2.55
2022-07-25T20:14:26.822Z,2.97
2022-07-25T20:16:54.957Z,2.80
2022-07-25T20:19:23.043Z,2.90
2022-07-25T20:21:52.639Z,2.55
2022-07-25T20:24:21.908Z,3.08
2022-07-25T20:26:50.293Z,2.50
2022-07-25T20:29:18.618Z,2.70
2022-07-25T20:31:46.672Z,3.00
2022-07-25T20:34:15.128Z,2.83
2022-07-25T20:36:43.101Z,3.20
2022-07-25T20:39:13.273Z,2.35
2022-07-25T20:41:41.287Z,2.60
2022-07-25T20:44:13.076Z,2.17
2022-07-25T20:46:41.184Z,2.63
2022-07-25T20:49:11.038Z,2.50
2022-07-25T20:51:42.018Z,2.58
2022-07-25T20:54:10.056Z,2.47
2022-07-25T20:56:39.424Z,3.47
2022-07-25T20:59:08.139Z,2.33
2022-07-25T21:01:37.590Z,2.60
2022-07-25T21:04:07.772Z,2.78
2022-07-25T21:06:36.784Z,2.40
2022-07-25T21:09:05.852Z,2.60
2022-07-25T21:11:35.585Z,2.55
2022-07-25T21:14:05.540Z,2.92
2022-07-25T21:16:34.362Z,2.50
2022-07-25T21:19:02.544Z,2.85
2022-07-25T21:21:30.715Z,2.53
2022-07-25T21:23:58.677Z,2.80
2022-07-25T21:26:26.679Z,2.60
2022-07-25T21:28:54.651Z,3.00
2022-07-25T21:31:24.127Z,2.70
2022-07-25T21:33:52.327Z,2.90
2022-07-25T21:36:20.268Z,2.85
2022-07-25T21:38:48.328Z,3.17
2022-07-25T21:41:16.472Z,2.90
2022-07-25T21:43:44.466Z,2.17
2022-07-25T21:46:12.589Z,2.60
2022-07-25T21:48:59.790Z,2.53
2022-07-25T21:51:36.794Z,2.63
2022-07-25T21:54:09.150Z,2.63
2022-07-25T21:56:37.398Z,3.15
2022-07-25T21:59:06.891Z,2.55
2022-07-25T22:01:35.263Z,2.95
2022-07-25T22:04:05.889Z,2.85
2022-07-25T22:06:33.971Z,2.53
2022-07-25T22:09:01.973Z,2.60
2022-07-25T22:11:42.643Z,2.90
2022-07-25T22:14:14.441Z,3.38
2022-07-25T22:16:42.497Z,2.88
2022-07-25T22:19:12.035Z,2.92
2022-07-25T22:21:41.262Z,2.90
2022-07-25T22:24:09.857Z,3.13
2022-07-25T22:26:38.069Z,3.38
2022-07-25T22:29:06.271Z,3.80
2022-07-25T22:31:34.559Z,3.03
2022-07-25T22:34:02.626Z,2.95
2022-07-25T22:36:32.038Z,3.53
2022-07-25T22:39:00.106Z,3.10
2022-07-25T22:41:28.147Z,3.70
2022-07-25T22:43:58.781Z,3.70
2022-07-25T22:46:28.438Z,3.70
2022-07-25T22:48:56.701Z,3.22
2022-07-25T22:51:24.958Z,3.88
2022-07-25T22:53:54.402Z,4.03
2022-07-25T22:56:22.474Z,3.58
2022-07-25T22:58:50.439Z,3.65
2022-07-25T23:01:18.643Z,3.83
2022-07-25T23:03:47.386Z,3.85
2022-07-25T23:06:17.074Z,3.90
2022-07-25T23:08:45.093Z,3.33
2022-07-25T23:11:14.488Z,3.63
2022-07-25T23:13:42.438Z,3.58
2022-07-25T23:16:10.778Z,3.85
2022-07-25T23:18:38.906Z,3.95
2022-07-25T23:21:06.910Z,3.95
2022-07-25T23:23:34.852Z,4.28
2022-07-25T23:26:02.923Z,4.03
2022-07-25T23:28:32.434Z,4.63
2022-07-25T23:31:00.469Z,4.13
2022-07-25T23:33:29.560Z,4.60
2022-07-25T23:35:58.351Z,3.53
2022-07-25T23:38:26.513Z,4.13
2022-07-25T23:40:54.934Z,4.00
2022-07-25T23:43:33.597Z,4.45
2022-07-25T23:46:12.331Z,3.85
2022-07-25T23:48:40.368Z,4.18
2022-07-25T23:51:08.913Z,4.43
2022-07-25T23:53:37.250Z,4.10
2022-07-25T23:56:05.810Z,4.15
2022-07-25T23:58:33.747Z,3.85
